Time;durP1;ratioP1;P1;durP2;ratioP2;P2;SDS_P1;SDS_P2;PMS_P1;PMS_P2;Temp;Humidity;BMP_temperature;BMP_pressure;BME280_temperature;BME280_humidity;BME280_pressure;Samples;Min_cycle;Max_cycle;Signal;HPM_P1;HPM_P2
2022/09/25 00:00:14;;;;;;;9.02;4.60;;;;;;;;;;5113481;28;20035;-67
2022/09/25 00:02:40;;;;;;;11.65;4.78;;;;;;;;;;5112775;28;20043;-67
2022/09/25 00:05:07;;;;;;;11.68;4.53;;;;;;;;;;5107078;28;20130;-67
2022/09/25 00:07:33;;;;;;;8.75;4.20;;;;;;;;;;5113295;28;20130;-67
2022/09/25 00:09:59;;;;;;;10.63;4.38;;;;;;;;;;5112382;28;20792;-67
2022/09/25 00:12:25;;;;;;;12.80;4.85;;;;;;;;;;5111686;28;20122;-67
2022/09/25 00:14:52;;;;;;;11.48;4.80;;;;;;;;;;5113277;28;20051;-67
2022/09/25 00:17:18;;;;;;;12.07;5.03;;;;;;;;;;5112475;28;20032;-67
2022/09/25 00:19:50;;;;;;;8.27;4.78;;;;;;;;;;5111666;28;20043;-67
2022/09/25 00:22:16;;;;;;;11.18;4.40;;;;;;;;;;5111412;28;20050;-67
2022/09/25 00:24:43;;;;;;;15.35;5.05;;;;;;;;;;5112457;28;20070;-67
2022/09/25 00:27:09;;;;;;;11.13;4.57;;;;;;;;;;5095824;28;20040;-67
2022/09/25 00:29:39;;;;;;;7.20;4.25;;;;;;;;;;5094210;28;20047;-67
2022/09/25 00:32:06;;;;;;;11.00;4.45;;;;;;;;;;5112430;28;20039;-67
2022/09/25 00:34:33;;;;;;;10.43;4.25;;;;;;;;;;5112772;28;20040;-67
2022/09/25 00:36:59;;;;;;;10.38;4.50;;;;;;;;;;5112717;28;20035;-67
2022/09/25 00:39:25;;;;;;;11.82;4.60;;;;;;;;;;5112339;28;20430;-67
2022/09/25 00:41:52;;;;;;;8.95;3.72;;;;;;;;;;5093923;28;20044;-67
2022/09/25 00:44:37;;;;;;;5.63;3.42;;;;;;;;;;5112645;28;20098;-67
2022/09/25 00:47:03;;;;;;;9.93;3.53;;;;;;;;;;5112198;28;20041;-67
2022/09/25 00:49:29;;;;;;;6.38;3.70;;;;;;;;;;5112393;28;20047;-67
2022/09/25 00:52:02;;;;;;;9.57;3.38;;;;;;;;;;5112445;28;20040;-67
2022/09/25 00:54:38;;;;;;;9.05;3.60;;;;;;;;;;5093662;28;20044;-67
2022/09/25 00:57:06;;;;;;;10.23;3.38;;;;;;;;;;5111516;28;20122;-67
2022/09/25 00:59:40;;;;;;;6.82;3.33;;;;;;;;;;5112151;28;20039;-67
2022/09/25 01:02:08;;;;;;;6.13;3.03;;;;;;;;;;5111810;28;20032;-67
2022/09/25 01:04:36;;;;;;;6.93;3.53;;;;;;;;;;5112235;28;20035;-67
2022/09/25 01:07:03;;;;;;;9.52;3.35;;;;;;;;;;5112065;28;20089;-67
2022/09/25 01:09:29;;;;;;;5.90;2.78;;;;;;;;;;5109789;28;20083;-67
2022/09/25 01:11:55;;;;;;;7.05;3.20;;;;;;;;;;5112000;28;20039;-67
2022/09/25 01:14:22;;;;;;;8.82;2.83;;;;;;;;;;5111978;28;20044;-67
2022/09/25 01:16:55;;;;;;;9.10;3.15;;;;;;;;;;5111452;28;20084;-67
2022/09/25 01:19:21;;;;;;;7.97;2.80;;;;;;;;;;5111724;28;20047;-67
2022/09/25 01:22:03;;;;;;;7.90;3.28;;;;;;;;;;5111935;28;20050;-67
2022/09/25 01:24:29;;;;;;;7.28;3.08;;;;;;;;;;5111269;28;20155;-67
2022/09/25 01:27:27;;;;;;;6.03;3.20;;;;;;;;;;5111796;28;20035;-67
2022/09/25 01:30:02;;;;;;;7.25;3.10;;;;;;;;;;5055655;28;20047;-67
2022/09/25 01:32:32;;;;;;;9.57;3.00;;;;;;;;;;5093127;28;20857;-67
2022/09/25 01:35:04;;;;;;;9.13;2.95;;;;;;;;;;5111616;28;20421;-67
2022/09/25 01:37:41;;;;;;;9.73;3.63;;;;;;;;;;5111624;28;20042;-67
2022/09/25 01:40:23;;;;;;;6.72;2.95;;;;;;;;;;5111198;28;20293;-67
2022/09/25 01:43:04;;;;;;;5.27;2.93;;;;;;;;;;5111452;28;20039;-67
2022/09/25 01:45:34;;;;;;;6.28;3.08;;;;;;;;;;5093136;28;20035;-67
2022/09/25 01:48:01;;;;;;;7.03;3.03;;;;;;;;;;5093019;28;20482;-67
2022/09/25 01:50:33;;;;;;;8.32;3.42;;;;;;;;;;5111382;28;20531;-67
2022/09/25 01:53:01;;;;;;;9.77;3.97;;;;;;;;;;5092498;28;20080;-67
2022/09/25 01:55:31;;;;;;;6.63;2.97;;;;;;;;;;5111092;28;20051;-67
2022/09/25 01:58:20;;;;;;;7.88;3.13;;;;;;;;;;5111284;28;20035;-67
2022/09/25 02:00:51;;;;;;;10.75;3.33;;;;;;;;;;5097421;28;20047;-67
2022/09/25 02:03:24;;;;;;;5.93;2.90;;;;;;;;;;5111320;28;20046;-67
2022/09/25 02:05:54;;;;;;;10.27;2.90;;;;;;;;;;5092790;28;20032;-67
2022/09/25 02:08:31;;;;;;;9.95;2.90;;;;;;;;;;5110426;28;20036;-67
2022/09/25 02:11:01;;;;;;;8.98;2.85;;;;;;;;;;5111163;28;20541;-67
2022/09/25 02:13:32;;;;;;;5.82;2.97;;;;;;;;;;5110883;28;20050;-67
2022/09/25 02:16:08;;;;;;;10.63;3.22;;;;;;;;;;5110618;28;20118;-67
2022/09/25 02:21:19;;;;;;;6.93;2.58;;;;;;;;;;5111061;28;20110;-67
2022/09/25 02:24:04;;;;;;;4.10;2.67;;;;;;;;;;5110617;28;20350;-67
2022/09/25 02:26:32;;;;;;;9.30;3.05;;;;;;;;;;5110901;28;20378;-67
2022/09/25 02:28:58;;;;;;;5.25;3.20;;;;;;;;;;5110951;28;20359;-67
2022/09/25 02:31:56;;;;;;;9.43;3.40;;;;;;;;;;5110401;28;20132;-67
2022/09/25 02:34:23;;;;;;;6.18;2.78;;;;;;;;;;5054864;28;20109;-67
2022/09/25 02:36:49;;;;;;;13.43;3.40;;;;;;;;;;5110968;28;20143;-67
2022/09/25 02:39:17;;;;;;;6.13;3.05;;;;;;;;;;5110450;28;20061;-67
2022/09/25 02:41:43;;;;;;;7.93;3.17;;;;;;;;;;5110932;28;20043;-67
2022/09/25 02:44:18;;;;;;;11.73;3.47;;;;;;;;;;5110552;28;20038;-67
2022/09/25 02:46:44;;;;;;;9.82;3.00;;;;;;;;;;5110480;28;20062;-67
2022/09/25 02:49:42;;;;;;;9.48;2.78;;;;;;;;;;5110586;28;20066;-67
2022/09/25 02:52:14;;;;;;;4.60;2.47;;;;;;;;;;5054225;28;20047;-67
2022/09/25 02:54:40;;;;;;;8.48;2.50;;;;;;;;;;5092486;28;20040;-67
2022/09/25 02:57:09;;;;;;;2.90;2.45;;;;;;;;;;5092127;28;20039;-67
2022/09/25 02:59:38;;;;;;;5.63;2.90;;;;;;;;;;5110067;28;20066;-67
2022/09/25 03:02:04;;;;;;;10.57;3.35;;;;;;;;;;5110617;28;20061;-67
2022/09/25 03:04:33;;;;;;;8.40;2.95;;;;;;;;;;5099207;28;20114;-67
2022/09/25 03:07:00;;;;;;;9.30;3.30;;;;;;;;;;5110234;28;20043;-67
2022/09/25 03:09:29;;;;;;;6.78;3.55;;;;;;;;;;5110019;28;20139;-67
2022/09/25 03:11:56;;;;;;;9.32;4.00;;;;;;;;;;5110503;28;20105;-67
2022/09/25 03:14:22;;;;;;;8.75;3.80;;;;;;;;;;5109784;28;20144;-67
2022/09/25 03:16:48;;;;;;;8.65;3.70;;;;;;;;;;5110546;28;20184;-67
2022/09/25 03:19:15;;;;;;;8.63;3.90;;;;;;;;;;5110704;28;20044;-67
2022/09/25 03:21:41;;;;;;;8.57;3.22;;;;;;;;;;5113918;28;20143;-67
2022/09/25 03:24:07;;;;;;;6.53;3.60;;;;;;;;;;5114092;28;20118;-67
2022/09/25 03:26:33;;;;;;;9.30;3.80;;;;;;;;;;5113993;28;20168;-67
2022/09/25 03:29:01;;;;;;;11.23;3.55;;;;;;;;;;5114120;28;20040;-67
2022/09/25 03:31:27;;;;;;;9.45;2.85;;;;;;;;;;5113946;28;20075;-67
2022/09/25 03:33:53;;;;;;;7.82;3.45;;;;;;;;;;5095457;28;20047;-67
2022/09/25 03:36:20;;;;;;;7.78;2.80;;;;;;;;;;5113967;28;20100;-67
2022/09/25 03:38:49;;;;;;;12.40;3.60;;;;;;;;;;5113250;28;20096;-67
2022/09/25 03:41:19;;;;;;;8.05;2.78;;;;;;;;;;5113826;28;20477;-67
2022/09/25 03:43:46;;;;;;;7.60;3.30;;;;;;;;;;5113862;28;20459;-67
2022/09/25 03:46:15;;;;;;;4.40;2.33;;;;;;;;;;5113295;28;20039;-67
2022/09/25 03:48:41;;;;;;;7.80;2.70;;;;;;;;;;5095078;28;20043;-67
2022/09/25 03:51:08;;;;;;;5.20;2.47;;;;;;;;;;5095255;28;20044;-67
2022/09/25 03:53:35;;;;;;;6.35;2.60;;;;;;;;;;5113438;28;20047;-67
2022/09/25 03:56:02;;;;;;;7.50;3.28;;;;;;;;;;5113138;28;20051;-67
2022/09/25 03:58:28;;;;;;;5.53;2.70;;;;;;;;;;5113526;28;20075;-67
2022/09/25 04:00:57;;;;;;;9.60;3.10;;;;;;;;;;5112825;28;20043;-67
2022/09/25 04:03:27;;;;;;;5.22;2.15;;;;;;;;;;5113374;28;20089;-67
2022/09/25 04:05:54;;;;;;;6.95;2.78;;;;;;;;;;5111621;28;20035;-67
2022/09/25 04:08:22;;;;;;;7.10;2.70;;;;;;;;;;5112724;28;20054;-67
2022/09/25 04:10:48;;;;;;;10.52;2.78;;;;;;;;;;5112932;28;20059;-67
2022/09/25 04:13:15;;;;;;;7.93;2.80;;;;;;;;;;5113384;28;20047;-67
2022/09/25 04:15:41;;;;;;;4.97;2.40;;;;;;;;;;5112892;28;20052;-67
2022/09/25 04:18:08;;;;;;;5.82;2.63;;;;;;;;;;5112742;28;20075;-67
2022/09/25 04:20:34;;;;;;;8.02;2.90;;;;;;;;;;5112911;28;20089;-67
2022/09/25 04:23:00;;;;;;;5.45;2.55;;;;;;;;;;5112755;28;20123;-67
2022/09/25 04:25:27;;;;;;;4.88;2.10;;;;;;;;;;5112948;28;20035;-67
2022/09/25 04:27:57;;;;;;;8.20;2.80;;;;;;;;;;5112808;28;20114;-67
2022/09/25 04:30:23;;;;;;;4.80;2.30;;;;;;;;;;5112464;28;20051;-67
2022/09/25 04:35:35;;;;;;;7.22;2.97;;;;;;;;;;5112724;28;20044;-67
2022/09/25 04:38:01;;;;;;;6.32;2.75;;;;;;;;;;5111943;28;20055;-67
2022/09/25 04:40:27;;;;;;;9.40;2.47;;;;;;;;;;5112473;28;20039;-67
2022/09/25 04:43:01;;;;;;;10.07;3.65;;;;;;;;;;5112406;28;20035;-67
2022/09/25 04:45:27;;;;;;;9.30;2.65;;;;;;;;;;5112459;28;20040;-67
2022/09/25 04:47:54;;;;;;;5.90;2.60;;;;;;;;;;5112476;28;20036;-67
2022/09/25 04:50:24;;;;;;;7.38;2.67;;;;;;;;;;5112432;28;20063;-67
2022/09/25 04:52:50;;;;;;;8.23;2.95;;;;;;;;;;5093419;28;20043;-67
2022/09/25 04:55:23;;;;;;;9.43;2.97;;;;;;;;;;5112173;28;20074;-67
2022/09/25 04:57:56;;;;;;;11.60;2.88;;;;;;;;;;5112110;28;20529;-67
2022/09/25 05:00:23;;;;;;;5.10;2.50;;;;;;;;;;5111922;28;20122;-67
2022/09/25 05:02:49;;;;;;;6.10;2.20;;;;;;;;;;5112292;28;20421;-67
2022/09/25 05:05:15;;;;;;;5.28;2.25;;;;;;;;;;5111983;28;20089;-67
2022/09/25 05:07:51;;;;;;;7.75;2.60;;;;;;;;;;5111943;28;20551;-67
2022/09/25 05:10:19;;;;;;;4.45;2.60;;;;;;;;;;5111939;28;20056;-67
2022/09/25 05:12:46;;;;;;;7.40;2.50;;;;;;;;;;5111612;28;20047;-67
2022/09/25 05:15:12;;;;;;;4.30;2.40;;;;;;;;;;5112028;28;20043;-67
2022/09/25 05:17:38;;;;;;;6.45;2.55;;;;;;;;;;5111894;28;20047;-67
2022/09/25 05:20:04;;;;;;;4.25;2.10;;;;;;;;;;5111661;28;20075;-67
2022/09/25 05:22:30;;;;;;;4.60;2.40;;;;;;;;;;5111566;28;20053;-67
2022/09/25 05:24:56;;;;;;;9.55;2.65;;;;;;;;;;5111780;28;20036;-67
2022/09/25 05:27:23;;;;;;;8.68;3.05;;;;;;;;;;5111778;28;20086;-67
2022/09/25 05:29:49;;;;;;;7.80;2.47;;;;;;;;;;5111362;28;20039;-67
2022/09/25 05:32:17;;;;;;;7.47;2.42;;;;;;;;;;5111637;28;20435;-67
2022/09/25 05:34:43;;;;;;;6.13;2.50;;;;;;;;;;5111460;28;20047;-67
2022/09/25 05:37:09;;;;;;;6.20;2.65;;;;;;;;;;5111249;28;20046;-67
2022/09/25 05:39:35;;;;;;;4.65;2.20;;;;;;;;;;5111418;28;20039;-67
2022/09/25 05:42:01;;;;;;;5.47;2.30;;;;;;;;;;5111110;28;20093;-67
2022/09/25 05:44:27;;;;;;;4.95;2.25;;;;;;;;;;5110936;28;20541;-67
2022/09/25 05:46:55;;;;;;;5.40;2.38;;;;;;;;;;5111368;28;20136;-67
2022/09/25 05:49:22;;;;;;;4.68;2.35;;;;;;;;;;5111030;28;20039;-67
2022/09/25 05:51:48;;;;;;;7.47;2.50;;;;;;;;;;5110953;28;20124;-67
2022/09/25 05:54:14;;;;;;;7.78;2.50;;;;;;;;;;5111493;28;20039;-67
2022/09/25 05:56:40;;;;;;;9.27;2.80;;;;;;;;;;5111588;28;20119;-67
2022/09/25 05:59:06;;;;;;;4.07;2.33;;;;;;;;;;5110553;28;20062;-67
2022/09/25 06:01:32;;;;;;;4.97;2.40;;;;;;;;;;5111146;28;20688;-67
2022/09/25 06:03:58;;;;;;;6.85;2.55;;;;;;;;;;5110965;28;20036;-67
2022/09/25 06:06:24;;;;;;;9.35;2.92;;;;;;;;;;5110842;28;20042;-67
2022/09/25 06:08:50;;;;;;;7.72;2.60;;;;;;;;;;5108037;28;20105;-67
2022/09/25 06:11:16;;;;;;;7.57;2.65;;;;;;;;;;5090931;28;20039;-67
2022/09/25 06:13:43;;;;;;;5.32;2.55;;;;;;;;;;5090414;28;20044;-67
2022/09/25 06:16:13;;;;;;;4.90;2.70;;;;;;;;;;5090825;28;20048;-67
2022/09/25 06:18:39;;;;;;;6.13;2.90;;;;;;;;;;5090250;28;20044;-67
2022/09/25 06:21:06;;;;;;;7.80;2.60;;;;;;;;;;5089968;28;20040;-67
2022/09/25 06:23:32;;;;;;;5.65;3.10;;;;;;;;;;5090436;28;20040;-67
2022/09/25 06:26:02;;;;;;;5.97;3.50;;;;;;;;;;5090706;28;20644;-67
2022/09/25 06:28:28;;;;;;;9.15;3.33;;;;;;;;;;5090237;28;20040;-67
2022/09/25 06:30:54;;;;;;;8.98;2.90;;;;;;;;;;5090718;28;20123;-67
2022/09/25 06:33:21;;;;;;;10.98;3.53;;;;;;;;;;5090749;28;20044;-67
2022/09/25 06:35:47;;;;;;;9.45;3.00;;;;;;;;;;5090134;28;20032;-67
2022/09/25 06:38:14;;;;;;;5.13;2.90;;;;;;;;;;5090608;28;20036;-67
2022/09/25 06:40:41;;;;;;;7.03;3.15;;;;;;;;;;5090562;28;20036;-67
2022/09/25 06:43:09;;;;;;;6.07;2.95;;;;;;;;;;5090223;28;20035;-68
2022/09/25 06:45:37;;;;;;;9.85;3.67;;;;;;;;;;5090697;28;20046;-67
2022/09/25 06:48:04;;;;;;;8.43;3.17;;;;;;;;;;5090260;28;20047;-67
2022/09/25 06:50:35;;;;;;;8.15;3.65;;;;;;;;;;5090154;28;20039;-66
2022/09/25 06:53:01;;;;;;;6.13;2.78;;;;;;;;;;5090666;28;20463;-66
2022/09/25 06:55:30;;;;;;;6.80;2.80;;;;;;;;;;5093092;28;20470;-67
2022/09/25 06:57:56;;;;;;;6.65;2.58;;;;;;;;;;5093906;28;20044;-67
2022/09/25 07:00:23;;;;;;;9.27;2.65;;;;;;;;;;5094262;28;20040;-67
2022/09/25 07:05:33;;;;;;;6.70;2.47;;;;;;;;;;5093841;28;20048;-67
2022/09/25 07:08:00;;;;;;;9.10;2.67;;;;;;;;;;5094040;28;20043;-67
2022/09/25 07:10:26;;;;;;;9.25;2.78;;;;;;;;;;5110296;28;20385;-67
2022/09/25 07:12:52;;;;;;;7.18;2.63;;;;;;;;;;5114379;28;20379;-67
2022/09/25 07:15:18;;;;;;;7.38;2.60;;;;;;;;;;5114463;28;20051;-67
2022/09/25 07:17:44;;;;;;;6.47;2.47;;;;;;;;;;5114466;27;20541;-67
2022/09/25 07:20:14;;;;;;;7.80;3.05;;;;;;;;;;5114107;28;20497;-67
2022/09/25 07:22:43;;;;;;;7.45;3.17;;;;;;;;;;5114501;28;20072;-67
2022/09/25 07:25:10;;;;;;;9.57;3.20;;;;;;;;;;5114013;27;20146;-67
2022/09/25 07:27:36;;;;;;;8.00;2.95;;;;;;;;;;5113884;28;20047;-67
2022/09/25 07:30:03;;;;;;;7.18;2.95;;;;;;;;;;5114306;28;20061;-67
2022/09/25 07:32:30;;;;;;;9.68;3.28;;;;;;;;;;5114133;28;20504;-67
2022/09/25 07:34:57;;;;;;;5.68;2.90;;;;;;;;;;5113396;28;20109;-67
2022/09/25 07:37:23;;;;;;;9.40;3.55;;;;;;;;;;5114063;28;20459;-67
2022/09/25 07:39:49;;;;;;;8.75;3.10;;;;;;;;;;5113864;28;20078;-67
2022/09/25 07:42:16;;;;;;;5.57;2.67;;;;;;;;;;5113520;28;20405;-67
2022/09/25 07:44:42;;;;;;;8.80;3.30;;;;;;;;;;5113780;28;20460;-67
2022/09/25 07:47:09;;;;;;;11.88;3.78;;;;;;;;;;5112520;28;20036;-67
2022/09/25 07:49:35;;;;;;;6.07;2.47;;;;;;;;;;5111776;28;20059;-66
2022/09/25 07:52:03;;;;;;;5.82;2.30;;;;;;;;;;5112149;28;20113;-67
2022/09/25 07:54:29;;;;;;;9.35;2.92;;;;;;;;;;5113644;28;20055;-67
2022/09/25 07:56:55;;;;;;;12.05;2.80;;;;;;;;;;5111634;28;20042;-67
2022/09/25 07:59:21;;;;;;;9.48;2.20;;;;;;;;;;5113081;28;20047;-67
2022/09/25 08:01:47;;;;;;;5.75;2.30;;;;;;;;;;5113692;28;20085;-67
2022/09/25 08:04:13;;;;;;;5.53;2.08;;;;;;;;;;5112858;28;20031;-67
2022/09/25 08:06:39;;;;;;;8.93;1.95;;;;;;;;;;5113028;28;20047;-67
2022/09/25 08:09:05;;;;;;;7.35;1.98;;;;;;;;;;5112922;28;20051;-67
2022/09/25 08:11:33;;;;;;;5.43;1.63;;;;;;;;;;5112927;28;20126;-67
2022/09/25 08:13:59;;;;;;;6.53;1.50;;;;;;;;;;5113432;28;20093;-67
2022/09/25 08:16:25;;;;;;;5.20;1.50;;;;;;;;;;5113260;28;20070;-67
2022/09/25 08:18:52;;;;;;;7.90;2.00;;;;;;;;;;5111226;28;20039;-67
2022/09/25 08:21:19;;;;;;;6.15;1.73;;;;;;;;;;5113068;28;20044;-67
2022/09/25 08:23:48;;;;;;;13.15;1.73;;;;;;;;;;5113135;28;20089;-67
2022/09/25 08:26:15;;;;;;;7.80;1.35;;;;;;;;;;5112598;28;20484;-67
2022/09/25 08:28:41;;;;;;;9.32;1.48;;;;;;;;;;5111695;28;20039;-67
2022/09/25 08:31:07;;;;;;;6.00;1.02;;;;;;;;;;5113160;28;20051;-67
2022/09/25 08:33:33;;;;;;;5.18;1.20;;;;;;;;;;5112391;28;20092;-68
2022/09/25 08:36:01;;;;;;;5.85;0.90;;;;;;;;;;5111249;28;20169;-68
2022/09/25 08:38:28;;;;;;;6.00;1.20;;;;;;;;;;5112560;28;20044;-68
2022/09/25 08:40:59;;;;;;;5.05;1.40;;;;;;;;;;5112288;28;20122;-68
2022/09/25 08:43:26;;;;;;;9.43;1.13;;;;;;;;;;5112535;28;20097;-68
2022/09/25 08:49:05;;;;;;;5.00;0.98;;;;;;;;;;5112311;28;20039;-68
2022/09/25 08:51:30;;;;;;;;;;;;;;;;;;5113003;28;20043;-67
2022/09/25 08:53:57;;;;;;;8.00;0.80;;;;;;;;;;5112628;28;19916;-67
2022/09/25 08:56:24;;;;;;;5.82;0.80;;;;;;;;;;5111729;28;20036;-67
2022/09/25 08:58:53;;;;;;;4.95;0.85;;;;;;;;;;5112402;28;20109;-67
2022/09/25 09:01:21;;;;;;;2.95;1.15;;;;;;;;;;5110712;28;20054;-67
2022/09/25 09:04:18;;;;;;;8.02;1.10;;;;;;;;;;5111992;28;20108;-68
2022/09/25 09:06:44;;;;;;;5.97;0.98;;;;;;;;;;5089948;28;20056;-67
2022/09/25 09:09:29;;;;;;;4.63;0.93;;;;;;;;;;5111963;28;20052;-67
2022/09/25 09:11:59;;;;;;;8.70;0.82;;;;;;;;;;5110581;28;20111;-67
2022/09/25 09:14:29;;;;;;;6.68;1.00;;;;;;;;;;5112153;28;20051;-67
2022/09/25 09:16:54;;;;;;;5.18;0.80;;;;;;;;;;5109571;28;20066;-67
2022/09/25 09:19:20;;;;;;;4.55;0.85;;;;;;;;;;5111772;28;20047;-67
2022/09/25 09:21:52;;;;;;;4.82;0.93;;;;;;;;;;5112014;28;20374;-67
2022/09/25 09:24:18;;;;;;;8.65;0.93;;;;;;;;;;5112008;28;20036;-67
2022/09/25 09:27:03;;;;;;;4.60;0.80;;;;;;;;;;5110610;28;20173;-67
2022/09/25 09:29:37;;;;;;;4.90;0.65;;;;;;;;;;5111539;28;20062;-67
2022/09/25 09:32:22;;;;;;;9.13;1.83;;;;;;;;;;5111492;28;20069;-67
2022/09/25 09:34:57;;;;;;;5.57;1.10;;;;;;;;;;5111796;28;20085;-67
2022/09/25 09:37:44;;;;;;;2.53;0.80;;;;;;;;;;5111693;28;20051;-67
2022/09/25 09:40:19;;;;;;;4.40;0.85;;;;;;;;;;5097280;28;20051;-67
2022/09/25 09:43:03;;;;;;;2.10;0.50;;;;;;;;;;5111674;28;20039;-67
2022/09/25 09:45:43;;;;;;;2.67;0.65;;;;;;;;;;5111575;28;20074;-67
2022/09/25 09:48:31;;;;;;;4.63;1.00;;;;;;;;;;5111112;28;20373;-67
2022/09/25 09:51:06;;;;;;;3.05;1.20;;;;;;;;;;5111726;28;20067;-67
2022/09/25 09:53:39;;;;;;;2.33;1.27;;;;;;;;;;5111445;28;20050;-67
2022/09/25 09:56:05;;;;;;;;;;;;;;;;;;5111248;28;20044;-67
2022/09/25 09:58:35;;;;;;;6.22;2.05;;;;;;;;;;5111359;28;20344;-67
2022/09/25 10:01:01;;;;;;;5.57;1.95;;;;;;;;;;5111248;28;20386;-67
2022/09/25 10:03:28;;;;;;;3.25;1.23;;;;;;;;;;5111013;28;20031;-67
2022/09/25 10:05:57;;;;;;;4.70;1.10;;;;;;;;;;5109677;28;20095;-67
2022/09/25 10:08:23;;;;;;;4.78;1.00;;;;;;;;;;5111246;28;20040;-67
2022/09/25 10:10:52;;;;;;;2.22;0.80;;;;;;;;;;5110514;28;20063;-67
2022/09/25 10:13:31;;;;;;;4.40;0.85;;;;;;;;;;5111399;28;20126;-67
2022/09/25 10:16:00;;;;;;;3.20;0.80;;;;;;;;;;5110835;28;20035;-67
2022/09/25 10:18:30;;;;;;;2.20;0.80;;;;;;;;;;5110473;28;20075;-67
2022/09/25 10:21:03;;;;;;;4.03;0.73;;;;;;;;;;5111165;28;20061;-67
2022/09/25 10:23:38;;;;;;;1.77;0.73;;;;;;;;;;5109886;28;20659;-67
2022/09/25 10:26:23;;;;;;;3.53;1.10;;;;;;;;;;5110798;28;20118;-67
2022/09/25 10:28:49;;;;;;;1.42;0.55;;;;;;;;;;5111414;28;20039;-67
2022/09/25 10:31:17;;;;;;;4.70;0.93;;;;;;;;;;5115006;28;20497;-67
2022/09/25 10:33:57;;;;;;;4.65;0.85;;;;;;;;;;5115267;28;20619;-67
2022/09/25 10:36:38;;;;;;;5.53;0.70;;;;;;;;;;5113605;28;20082;-67
2022/09/25 10:39:05;;;;;;;5.55;1.00;;;;;;;;;;5113088;28;20048;-67
2022/09/25 10:41:40;;;;;;;5.25;0.65;;;;;;;;;;5115070;28;20043;-67
2022/09/25 10:44:18;;;;;;;5.50;1.55;;;;;;;;;;5114699;28;20036;-67
2022/09/25 10:52:16;;;;;;;6.22;1.10;;;;;;;;;;5114877;28;20592;-67
2022/09/25 10:54:42;;;;;;;3.70;1.17;;;;;;;;;;5114355;28;20610;-67
2022/09/25 10:57:17;;;;;;;2.40;0.90;;;;;;;;;;5114762;28;20043;-67
2022/09/25 10:59:49;;;;;;;2.22;0.80;;;;;;;;;;5114618;28;20041;-67
2022/09/25 11:02:32;;;;;;;2.00;0.68;;;;;;;;;;5114405;28;20469;-67
2022/09/25 11:04:58;;;;;;;2.22;0.73;;;;;;;;;;5114653;28;20112;-67
2022/09/25 11:07:26;;;;;;;2.45;0.65;;;;;;;;;;5113250;28;20043;-67
2022/09/25 11:09:53;;;;;;;3.75;0.77;;;;;;;;;;5112612;28;20494;-67
2022/09/25 11:12:23;;;;;;;5.07;0.88;;;;;;;;;;5114545;28;20062;-67
2022/09/25 11:15:04;;;;;;;2.78;0.90;;;;;;;;;;5114595;27;20046;-67
2022/09/25 11:17:41;;;;;;;6.32;0.88;;;;;;;;;;5113991;28;20101;-67
2022/09/25 11:20:28;;;;;;;5.32;1.27;;;;;;;;;;5114435;27;20043;-67
2022/09/25 11:23:13;;;;;;;3.75;0.80;;;;;;;;;;5112478;28;20066;-67
2022/09/25 11:25:58;;;;;;;3.38;0.80;;;;;;;;;;5114366;27;20067;-67
2022/09/25 11:28:33;;;;;;;4.50;1.00;;;;;;;;;;5114362;28;20043;-67
2022/09/25 11:31:09;;;;;;;6.22;1.15;;;;;;;;;;5113836;28;20474;-67
2022/09/25 11:33:43;;;;;;;2.85;0.90;;;;;;;;;;5114263;28;20040;-67
2022/09/25 11:36:31;;;;;;;2.60;0.85;;;;;;;;;;5114064;28;20484;-67
2022/09/25 11:41:46;;;;;;;4.63;0.82;;;;;;;;;;5112975;28;20052;-67
2022/09/25 11:44:15;;;;;;;6.10;1.13;;;;;;;;;;5113735;28;20092;-67
2022/09/25 11:46:50;;;;;;;4.15;0.88;;;;;;;;;;5113441;28;20043;-67
2022/09/25 11:49:25;;;;;;;6.07;1.30;;;;;;;;;;5113752;28;20393;-67
2022/09/25 11:52:09;;;;;;;4.57;1.30;;;;;;;;;;5113615;28;20054;-67
2022/09/25 11:54:35;;;;;;;7.32;1.00;;;;;;;;;;5113374;28;20035;-67
2022/09/25 11:57:01;;;;;;;3.05;1.00;;;;;;;;;;5113532;28;20394;-67
2022/09/25 11:59:42;;;;;;;5.75;1.23;;;;;;;;;;5112183;28;20097;-67
2022/09/25 12:02:24;;;;;;;3.22;0.85;;;;;;;;;;5113462;28;20044;-67
2022/09/25 12:04:54;;;;;;;2.15;0.95;;;;;;;;;;5113238;28;20088;-67
2022/09/25 12:07:38;;;;;;;3.40;0.80;;;;;;;;;;5111320;28;20043;-67
2022/09/25 12:10:14;;;;;;;4.40;0.88;;;;;;;;;;5111775;28;20071;-67
2022/09/25 12:12:40;;;;;;;6.25;1.05;;;;;;;;;;5113008;28;20039;-67
2022/09/25 12:15:21;;;;;;;4.32;1.23;;;;;;;;;;5112955;28;20082;-67
2022/09/25 12:17:57;;;;;;;2.58;0.98;;;;;;;;;;5113213;28;20096;-67
2022/09/25 12:20:29;;;;;;;2.65;0.70;;;;;;;;;;5113280;28;20036;-67
2022/09/25 12:22:55;;;;;;;;;;;;;;;;;;5113216;27;20035;-67
2022/09/25 12:25:21;;;;;;;6.45;0.90;;;;;;;;;;5113164;28;20002;-67
2022/09/25 12:28:00;;;;;;;3.15;0.80;;;;;;;;;;5113016;28;20048;-67
2022/09/25 12:30:34;;;;;;;2.65;0.85;;;;;;;;;;5112790;28;20530;-67
2022/09/25 12:33:01;;;;;;;1.90;0.90;;;;;;;;;;5111837;28;20043;-67
2022/09/25 12:35:32;;;;;;;6.35;1.05;;;;;;;;;;5113009;28;20055;-67
2022/09/25 12:38:10;;;;;;;3.77;1.10;;;;;;;;;;5110765;28;20039;-68
2022/09/25 12:40:37;;;;;;;3.88;0.65;;;;;;;;;;5112792;28;20043;-68
2022/09/25 12:43:25;;;;;;;4.13;0.82;;;;;;;;;;5112744;28;20384;-68
2022/09/25 12:46:05;;;;;;;2.40;0.70;;;;;;;;;;5112364;28;20040;-68
2022/09/25 12:48:42;;;;;;;5.72;0.90;;;;;;;;;;5112372;28;20051;-68
2022/09/25 12:51:18;;;;;;;1.60;0.60;;;;;;;;;;5112186;28;20379;-68
2022/09/25 12:53:55;;;;;;;3.90;0.95;;;;;;;;;;5111554;28;20046;-68
2022/09/25 12:56:44;;;;;;;2.33;0.60;;;;;;;;;;5112545;28;20048;-68
2022/09/25 12:59:23;;;;;;;4.63;0.85;;;;;;;;;;5110395;28;20050;-68
2022/09/25 13:02:00;;;;;;;3.83;1.08;;;;;;;;;;5112325;28;20050;-68
2022/09/25 13:04:34;;;;;;;2.15;0.70;;;;;;;;;;5111867;28;20043;-68
2022/09/25 13:07:09;;;;;;;3.50;0.60;;;;;;;;;;5110161;28;20043;-68
2022/09/25 13:09:40;;;;;;;2.00;0.60;;;;;;;;;;5111859;28;20047;-68
2022/09/25 13:12:15;;;;;;;2.97;0.70;;;;;;;;;;5112144;28;20043;-68
2022/09/25 13:14:44;;;;;;;4.15;1.08;;;;;;;;;;5111693;28;20393;-68
2022/09/25 13:17:11;;;;;;;7.05;0.90;;;;;;;;;;5110389;28;20093;-68
2022/09/25 13:19:37;;;;;;;2.83;0.65;;;;;;;;;;5112011;28;20092;-68
2022/09/25 13:22:06;;;;;;;4.78;1.02;;;;;;;;;;5111568;28;20049;-68
2022/09/25 13:24:55;;;;;;;2.42;0.60;;;;;;;;;;5112033;28;20096;-68
2022/09/25 13:27:22;;;;;;;4.40;1.10;;;;;;;;;;5091402;28;20075;-68
2022/09/25 13:29:53;;;;;;;2.67;0.70;;;;;;;;;;5090923;28;20044;-68
2022/09/25 13:32:24;;;;;;;2.90;0.60;;;;;;;;;;5091548;28;20032;-68
2022/09/25 13:34:57;;;;;;;2.47;0.60;;;;;;;;;;5090048;28;20664;-68
2022/09/25 13:37:25;;;;;;;2.05;0.43;;;;;;;;;;5090993;28;20032;-68
2022/09/25 13:42:37;;;;;;;5.10;0.80;;;;;;;;;;5091477;28;20085;-68
2022/09/25 13:45:21;;;;;;;3.60;0.60;;;;;;;;;;5091111;28;20040;-68
2022/09/25 13:47:56;;;;;;;2.58;0.40;;;;;;;;;;5091318;28;20234;-68
2022/09/25 13:50:27;;;;;;;2.22;0.40;;;;;;;;;;5091291;28;20043;-68
2022/09/25 13:53:16;;;;;;;4.03;0.50;;;;;;;;;;5090630;28;20036;-68
2022/09/25 13:55:43;;;;;;;1.65;0.60;;;;;;;;;;5091043;28;20044;-68
2022/09/25 13:58:19;;;;;;;2.85;0.60;;;;;;;;;;5090651;28;20098;-68
2022/09/25 14:00:56;;;;;;;2.78;0.60;;;;;;;;;;5091212;28;20055;-68
2022/09/25 14:03:31;;;;;;;3.50;0.70;;;;;;;;;;5090104;28;20128;-68
2022/09/25 14:05:58;;;;;;;1.55;0.45;;;;;;;;;;5111023;28;20466;-68
2022/09/25 14:08:25;;;;;;;1.83;0.50;;;;;;;;;;5111388;28;20084;-68
2022/09/25 14:10:53;;;;;;;1.80;0.50;;;;;;;;;;5109551;28;20502;-68
2022/09/25 14:13:22;;;;;;;3.10;0.50;;;;;;;;;;5109395;28;20151;-68
2022/09/25 14:15:49;;;;;;;1.85;0.40;;;;;;;;;;5111066;28;20075;-68
2022/09/25 14:18:36;;;;;;;1.42;0.38;;;;;;;;;;5111174;28;20027;-68
2022/09/25 14:21:04;;;;;;;1.20;0.43;;;;;;;;;;5109255;28;20055;-68
2022/09/25 14:23:32;;;;;;;1.60;0.50;;;;;;;;;;5109495;28;20035;-68
2022/09/25 14:25:58;;;;;;;0.88;0.55;;;;;;;;;;5111135;28;20035;-68
2022/09/25 14:28:31;;;;;;;1.73;0.40;;;;;;;;;;5109105;28;20043;-68
2022/09/25 14:31:20;;;;;;;3.30;0.57;;;;;;;;;;5111275;28;20042;-68
2022/09/25 14:33:46;;;;;;;4.30;0.93;;;;;;;;;;5102615;28;20063;-68
2022/09/25 14:36:27;;;;;;;1.23;0.60;;;;;;;;;;5110636;28;20047;-68
2022/09/25 14:38:59;;;;;;;1.10;0.47;;;;;;;;;;5110844;28;20092;-68
2022/09/25 14:41:28;;;;;;;4.38;0.60;;;;;;;;;;5110961;28;20039;-68
2022/09/25 14:44:15;;;;;;;3.25;0.98;;;;;;;;;;5110676;28;20141;-68
2022/09/25 14:46:42;;;;;;;3.67;0.60;;;;;;;;;;5109829;28;20038;-68
2022/09/25 14:49:20;;;;;;;1.63;0.60;;;;;;;;;;5109380;28;20369;-68
2022/09/25 14:51:47;;;;;;;2.58;0.73;;;;;;;;;;5110595;28;20116;-68
2022/09/25 14:54:15;;;;;;;2.08;0.47;;;;;;;;;;5109643;28;20059;-68
2022/09/25 14:56:47;;;;;;;3.75;0.68;;;;;;;;;;5110755;28;20039;-68
2022/09/25 14:59:16;;;;;;;3.83;0.50;;;;;;;;;;5110397;28;20132;-68
2022/09/25 15:01:45;;;;;;;3.45;0.60;;;;;;;;;;5110872;28;20126;-68
2022/09/25 15:04:11;;;;;;;2.85;0.50;;;;;;;;;;5109577;28;20046;-68
2022/09/25 15:06:39;;;;;;;3.63;0.60;;;;;;;;;;5108985;28;20549;-68
2022/09/25 15:09:26;;;;;;;2.15;0.40;;;;;;;;;;5110274;28;20146;-68
2022/09/25 15:11:54;;;;;;;3.65;0.60;;;;;;;;;;5110803;28;20056;-68
2022/09/25 15:14:20;;;;;;;1.45;0.60;;;;;;;;;;5108773;28;20066;-68
2022/09/25 15:19:33;;;;;;;2.22;0.60;;;;;;;;;;5114066;28;20047;-68
2022/09/25 15:21:59;;;;;;;1.27;0.40;;;;;;;;;;5114266;28;20040;-68
2022/09/25 15:24:28;;;;;;;3.90;0.70;;;;;;;;;;5114509;28;20406;-68
2022/09/25 15:27:02;;;;;;;2.17;0.30;;;;;;;;;;5113764;28;20084;-68